createdAt,value
2022-11-22T00:00:28.735Z,20.50
2022-11-22T00:02:55.474Z,22.35
2022-11-22T00:05:22.314Z,22.02
2022-11-22T00:07:51.469Z,17.17
2022-11-22T00:10:18.636Z,16.42
2022-11-22T00:12:45.327Z,17.67
2022-11-22T00:15:12.662Z,18.52
2022-11-22T00:17:40.125Z,17.38
2022-11-22T00:20:08.423Z,18.23
2022-11-22T00:22:38.458Z,18.70
2022-11-22T00:25:08.515Z,20.63
2022-11-22T00:27:35.469Z,18.23
2022-11-22T00:30:02.241Z,21.73
2022-11-22T00:32:28.884Z,15.73
2022-11-22T00:34:55.381Z,15.38
2022-11-22T00:37:21.955Z,17.67
2022-11-22T00:39:48.539Z,17.05
2022-11-22T00:42:15.090Z,22.63
2022-11-22T00:44:41.662Z,16.17
2022-11-22T00:47:08.267Z,18.30
2022-11-22T00:49:35.875Z,15.35
2022-11-22T00:52:02.472Z,18.77
2022-11-22T00:54:29.110Z,19.40
2022-11-22T00:56:55.735Z,19.23
2022-11-22T00:59:22.459Z,18.35
2022-11-22T01:01:49.017Z,22.52
2022-11-22T01:04:15.550Z,19.73
2022-11-22T01:06:42.129Z,18.05
2022-11-22T01:09:08.824Z,18.50
2022-11-22T01:11:35.362Z,18.70
2022-11-22T01:14:02.208Z,21.98
2022-11-22T01:16:31.894Z,18.63
2022-11-22T01:18:58.450Z,19.63
2022-11-22T01:21:25.077Z,17.90
2022-11-22T01:23:51.703Z,19.00
2022-11-22T01:26:18.303Z,18.75
2022-11-22T01:28:45.030Z,21.42
2022-11-22T01:31:11.665Z,19.25
2022-11-22T01:33:38.287Z,23.65
2022-11-22T01:36:05.303Z,19.50
2022-11-22T01:38:31.917Z,18.90
2022-11-22T01:40:58.522Z,20.90
2022-11-22T01:43:27.170Z,20.85
2022-11-22T01:45:54.824Z,21.10
2022-11-22T01:48:23.684Z,19.60
2022-11-22T01:50:54.672Z,20.98
2022-11-22T01:53:23.852Z,20.05
2022-11-22T01:55:51.341Z,18.75
2022-11-22T01:58:19.590Z,21.48
2022-11-22T02:00:46.820Z,20.83
2022-11-22T02:03:14.450Z,18.83
2022-11-22T02:05:41.868Z,19.13
2022-11-22T02:08:43.613Z,20.60
2022-11-22T02:11:11.432Z,20.42
2022-11-22T02:13:40.569Z,18.40
2022-11-22T02:16:07.290Z,18.42
2022-11-22T02:18:37.990Z,20.65
2022-11-22T02:21:05.523Z,23.05
2022-11-22T02:23:50.597Z,19.80
2022-11-22T02:26:17.229Z,18.63
2022-11-22T02:28:43.797Z,21.73
2022-11-22T02:31:38.362Z,21.08
2022-11-22T02:34:05.112Z,26.70
2022-11-22T02:36:35.582Z,20.17
2022-11-22T02:39:02.611Z,19.08
2022-11-22T02:41:29.210Z,22.15
2022-11-22T02:43:55.782Z,22.33
2022-11-22T02:46:23.728Z,21.38
2022-11-22T02:48:50.624Z,19.25
2022-11-22T02:51:20.065Z,24.45
2022-11-22T02:53:49.056Z,22.60
2022-11-22T02:56:16.208Z,20.55
2022-11-22T02:58:43.545Z,20.42
2022-11-22T03:01:11.772Z,22.58
2022-11-22T03:03:38.609Z,23.30
2022-11-22T03:06:05.252Z,20.98
2022-11-22T03:08:31.959Z,22.17
2022-11-22T03:11:01.465Z,22.88
2022-11-22T03:13:28.111Z,25.25
2022-11-22T03:15:55.080Z,24.67
2022-11-22T03:18:21.886Z,20.63
2022-11-22T03:20:48.523Z,23.35
2022-11-22T03:23:15.203Z,24.13
2022-11-22T03:25:44.153Z,25.20
2022-11-22T03:28:10.787Z,23.92
2022-11-22T03:30:42.037Z,21.75
2022-11-22T03:33:08.917Z,23.02
2022-11-22T03:35:35.678Z,22.05
2022-11-22T03:38:02.533Z,21.95
2022-11-22T03:40:29.240Z,27.30
2022-11-22T03:42:59.126Z,21.13
2022-11-22T03:45:26.697Z,23.15
2022-11-22T03:47:53.350Z,22.90
2022-11-22T03:50:19.947Z,21.80
2022-11-22T03:52:46.527Z,24.70
2022-11-22T03:55:13.063Z,26.92
2022-11-22T03:57:39.566Z,24.95
2022-11-22T04:00:06.929Z,23.55
2022-11-22T04:02:33.515Z,24.63
2022-11-22T04:05:00.117Z,26.85
2022-11-22T04:07:26.878Z,24.70
2022-11-22T04:09:53.469Z,26.02
2022-11-22T04:12:20.328Z,21.38
2022-11-22T04:15:05.642Z,26.85
2022-11-22T04:17:45.619Z,24.95
2022-11-22T04:20:33.472Z,23.38
2022-11-22T04:23:01.540Z,26.23
2022-11-22T04:25:29.823Z,27.08
2022-11-22T04:27:57.313Z,28.00
2022-11-22T04:30:45.111Z,27.73
2022-11-22T04:33:12.174Z,25.60
2022-11-22T04:35:39.516Z,27.55
2022-11-22T04:38:06.174Z,29.60
2022-11-22T04:40:33.500Z,23.75
2022-11-22T04:43:19.256Z,31.60
2022-11-22T04:45:46.241Z,28.95
2022-11-22T04:48:13.179Z,30.40
2022-11-22T04:50:59.683Z,27.42
2022-11-22T04:53:26.668Z,27.83
2022-11-22T04:55:53.277Z,29.80
2022-11-22T04:58:19.951Z,27.85
2022-11-22T05:00:46.780Z,28.17
2022-11-22T05:03:13.407Z,32.78
2022-11-22T05:05:42.287Z,29.83
2022-11-22T05:08:09.645Z,31.33
2022-11-22T05:10:55.928Z,33.10
2022-11-22T05:13:25.752Z,36.50
2022-11-22T05:15:54.011Z,31.15
2022-11-22T05:18:22.126Z,33.50
2022-11-22T05:20:51.178Z,36.00
2022-11-22T05:23:37.067Z,39.35
2022-11-22T05:26:04.422Z,28.73
2022-11-22T05:28:35.067Z,40.67
2022-11-22T05:31:13.386Z,32.35
2022-11-22T05:33:42.269Z,33.60
2022-11-22T05:36:09.563Z,38.55
2022-11-22T05:38:37.958Z,39.78
2022-11-22T05:41:12.197Z,40.25
2022-11-22T05:43:39.364Z,39.40
2022-11-22T05:46:12.970Z,39.08
2022-11-22T05:48:41.434Z,38.22
2022-11-22T05:51:12.424Z,42.45
2022-11-22T05:53:39.548Z,35.40
2022-11-22T05:56:26.460Z,41.75
2022-11-22T05:58:53.283Z,33.75
2022-11-22T06:01:21.932Z,38.50
2022-11-22T06:03:49.228Z,39.88
2022-11-22T06:06:16.168Z,33.85
2022-11-22T06:08:46.914Z,35.67
2022-11-22T06:11:22.563Z,42.08
2022-11-22T06:13:51.838Z,35.15
2022-11-22T06:16:18.515Z,37.30
2022-11-22T06:18:45.079Z,38.92
2022-11-22T06:21:16.419Z,39.60
2022-11-22T06:23:46.504Z,39.35
2022-11-22T06:26:16.564Z,38.45
2022-11-22T06:28:43.887Z,37.10
2022-11-22T06:31:13.128Z,33.35
2022-11-22T06:33:43.349Z,37.90
2022-11-22T06:36:20.944Z,38.95
2022-11-22T06:38:47.994Z,39.72
2022-11-22T06:41:16.737Z,37.17
2022-11-22T06:43:48.702Z,38.80
2022-11-22T06:46:16.967Z,34.78
2022-11-22T06:48:43.877Z,35.97
2022-11-22T06:51:16.906Z,38.58
2022-11-22T06:53:48.432Z,34.55
2022-11-22T06:56:18.980Z,36.55
2022-11-22T06:58:46.406Z,36.97
2022-11-22T07:01:18.565Z,32.90
2022-11-22T07:03:48.696Z,36.13
2022-11-22T07:06:16.686Z,31.75
2022-11-22T07:08:43.815Z,38.45
2022-11-22T07:11:12.811Z,34.30
2022-11-22T07:13:39.422Z,32.17
2022-11-22T07:16:08.746Z,35.28
2022-11-22T07:18:35.319Z,34.55
2022-11-22T07:21:22.124Z,34.17
2022-11-22T07:23:50.142Z,35.47
2022-11-22T07:26:18.323Z,31.17
2022-11-22T07:28:45.340Z,32.30
2022-11-22T07:31:16.018Z,29.83
2022-11-22T07:33:42.984Z,32.42
2022-11-22T07:36:19.685Z,38.20
2022-11-22T07:38:47.927Z,30.33
2022-11-22T07:41:14.991Z,31.65
2022-11-22T07:43:41.860Z,33.00
2022-11-22T07:46:15.556Z,30.08
2022-11-22T07:48:42.074Z,34.88
2022-11-22T07:51:08.878Z,29.58
2022-11-22T07:53:35.837Z,30.92
2022-11-22T07:56:03.900Z,37.13
2022-11-22T07:58:30.839Z,33.60
2022-11-22T08:00:57.461Z,32.80
2022-11-22T08:03:28.691Z,29.60
2022-11-22T08:06:02.997Z,30.67
2022-11-22T08:08:30.052Z,31.35
2022-11-22T08:10:57.042Z,35.70
2022-11-22T08:13:24.285Z,34.00
2022-11-22T08:15:54.463Z,31.55
2022-11-22T08:18:21.596Z,33.72
2022-11-22T08:20:48.124Z,34.38
2022-11-22T08:23:15.150Z,33.00
2022-11-22T08:25:41.730Z,34.25
2022-11-22T08:28:08.303Z,32.80
2022-11-22T08:30:34.850Z,31.55
2022-11-22T08:33:01.485Z,32.15
2022-11-22T08:35:28.162Z,30.83
2022-11-22T08:37:56.778Z,37.15
2022-11-22T08:40:23.272Z,29.90
2022-11-22T08:42:49.858Z,34.30
2022-11-22T08:45:16.791Z,35.05
2022-11-22T08:47:43.319Z,40.45
2022-11-22T08:50:11.167Z,30.05
2022-11-22T08:52:38.523Z,32.33
2022-11-22T08:55:05.624Z,32.58
2022-11-22T08:57:32.161Z,38.63
2022-11-22T08:59:58.711Z,37.13
2022-11-22T09:02:25.308Z,30.52
2022-11-22T09:04:51.832Z,35.22
2022-11-22T09:10:08.139Z,37.83
2022-11-22T09:12:34.769Z,39.90
2022-11-22T09:15:01.263Z,36.58
2022-11-22T09:17:27.898Z,35.75
2022-11-22T09:19:54.724Z,37.17
2022-11-22T09:22:25.340Z,44.80
2022-11-22T09:24:54.721Z,38.60
2022-11-22T09:27:21.232Z,42.47
2022-11-22T09:29:47.809Z,35.60
2022-11-22T09:32:14.424Z,43.03
2022-11-22T09:34:41.569Z,41.65
2022-11-22T09:37:08.173Z,45.75
2022-11-22T09:39:34.972Z,37.88
2022-11-22T09:42:33.936Z,46.63
2022-11-22T09:45:19.182Z,43.05
2022-11-22T09:47:56.777Z,36.47
2022-11-22T09:50:41.269Z,36.63
2022-11-22T09:53:18.750Z,37.10
2022-11-22T09:55:50.179Z,47.45
2022-11-22T09:58:22.648Z,35.45
2022-11-22T10:00:52.166Z,35.25
2022-11-22T10:03:26.553Z,37.75
2022-11-22T10:05:56.549Z,36.28
2022-11-22T10:08:36.412Z,37.63
2022-11-22T10:11:07.242Z,37.80
2022-11-22T10:13:45.351Z,40.95
2022-11-22T10:16:18.206Z,38.90
2022-11-22T10:18:59.132Z,35.45
2022-11-22T10:21:26.117Z,37.17
2022-11-22T10:23:52.927Z,40.47
2022-11-22T10:26:28.062Z,38.90
2022-11-22T10:29:12.902Z,33.58
2022-11-22T10:32:07.294Z,36.53
2022-11-22T10:34:52.722Z,35.08
2022-11-22T10:37:42.373Z,39.17
2022-11-22T10:40:40.074Z,37.05
2022-11-22T10:43:18.331Z,40.63
2022-11-22T10:45:49.834Z,57.95
2022-11-22T10:48:28.189Z,36.33
2022-11-22T10:51:12.645Z,38.65
2022-11-22T10:53:48.503Z,37.95
2022-11-22T10:56:33.665Z,41.10
2022-11-22T10:59:18.633Z,36.92
2022-11-22T11:01:52.024Z,38.75
2022-11-22T11:04:18.992Z,34.58
2022-11-22T11:07:13.306Z,37.38
2022-11-22T11:12:42.438Z,44.72
2022-11-22T11:15:17.684Z,42.50
2022-11-22T11:17:46.165Z,36.03
2022-11-22T11:20:33.638Z,38.83
2022-11-22T11:23:14.387Z,43.17
2022-11-22T11:25:44.524Z,37.85
2022-11-22T11:28:26.586Z,46.08
2022-11-22T11:31:01.290Z,42.97
2022-11-22T11:33:38.012Z,42.20
2022-11-22T11:36:18.548Z,40.83
2022-11-22T11:38:45.098Z,32.97
2022-11-22T11:41:21.651Z,36.17
2022-11-22T11:43:49.343Z,36.85
2022-11-22T11:46:41.775Z,37.72
2022-11-22T11:49:13.636Z,39.58
2022-11-22T11:51:44.317Z,40.22
2022-11-22T11:54:43.519Z,40.70
2022-11-22T11:57:12.141Z,36.97
2022-11-22T11:59:38.700Z,30.33
2022-11-22T12:02:12.813Z,37.35
2022-11-22T12:05:14.324Z,34.00
2022-11-22T12:07:46.176Z,37.65
2022-11-22T12:10:33.449Z,39.90
2022-11-22T12:13:20.979Z,38.13
2022-11-22T12:15:57.436Z,34.15
2022-11-22T12:18:38.935Z,35.50
2022-11-22T12:21:33.638Z,37.10
2022-11-22T12:24:45.596Z,34.20
2022-11-22T12:26:58.469Z,36.67
2022-11-22T12:29:25.298Z,33.35
2022-11-22T12:31:56.166Z,35.47
2022-11-22T12:34:24.489Z,36.53
2022-11-22T12:37:01.029Z,33.60
2022-11-22T12:39:28.932Z,38.65
2022-11-22T12:42:07.862Z,41.47
2022-11-22T12:44:38.794Z,35.60
2022-11-22T12:47:09.842Z,35.90
2022-11-22T12:49:49.693Z,41.08
2022-11-22T12:52:46.032Z,35.78
2022-11-22T12:55:18.913Z,42.42
2022-11-22T12:58:07.364Z,34.63
2022-11-22T13:00:37.576Z,35.40
2022-11-22T13:03:17.141Z,36.47
2022-11-22T13:05:54.512Z,36.85
2022-11-22T13:08:32.196Z,36.90
2022-11-22T13:11:26.388Z,34.15
2022-11-22T13:14:21.672Z,29.90
2022-11-22T13:16:53.423Z,29.90
2022-11-22T13:19:22.798Z,33.13
2022-11-22T13:22:07.521Z,36.70
2022-11-22T13:24:56.110Z,33.50
2022-11-22T13:27:28.457Z,36.67
2022-11-22T13:29:57.379Z,34.70
2022-11-22T13:32:24.846Z,39.40
2022-11-22T13:35:11.610Z,35.38
2022-11-22T13:37:50.531Z,33.72
2022-11-22T13:40:17.414Z,39.17
2022-11-22T13:42:44.020Z,35.88
2022-11-22T13:45:23.669Z,38.85
2022-11-22T13:47:50.631Z,32.53
2022-11-22T13:50:42.426Z,33.42
2022-11-22T13:53:24.154Z,35.03
2022-11-22T13:55:50.853Z,34.50
2022-11-22T13:58:50.256Z,33.63
2022-11-22T14:01:30.895Z,31.65
2022-11-22T14:04:15.910Z,39.00
2022-11-22T14:07:00.378Z,35.83
2022-11-22T14:09:29.678Z,34.05
2022-11-22T14:12:11.569Z,35.78
2022-11-22T14:14:41.473Z,36.85
2022-11-22T14:17:21.125Z,35.13
2022-11-22T14:20:24.924Z,32.85
2022-11-22T14:22:59.250Z,43.45
2022-11-22T14:25:44.414Z,32.70
2022-11-22T14:28:23.134Z,30.15
2022-11-22T14:30:54.091Z,36.70
2022-11-22T14:33:26.440Z,43.40
2022-11-22T14:36:08.338Z,31.67
2022-11-22T14:38:39.069Z,37.10
2022-11-22T14:41:39.807Z,33.90
2022-11-22T14:44:17.111Z,34.88
2022-11-22T14:46:53.634Z,31.27
2022-11-22T14:49:42.957Z,32.47
2022-11-22T14:52:22.067Z,32.03
2022-11-22T14:54:50.650Z,35.20
2022-11-22T14:57:19.659Z,35.08
2022-11-22T14:59:51.444Z,30.80
2022-11-22T15:02:55.276Z,31.65
2022-11-22T15:09:16.796Z,33.50
2022-11-22T15:09:19.190Z,34.35
2022-11-22T15:11:18.687Z,34.63
2022-11-22T15:14:22.256Z,29.83
2022-11-22T15:59:41.695Z,38.28
2022-11-22T16:02:16.921Z,33.50
2022-11-22T16:06:05.952Z,37.75
2022-11-22T16:07:45.694Z,33.92
2022-11-22T16:10:37.793Z,39.28
2022-11-22T16:13:20.358Z,37.05
2022-11-22T16:16:08.211Z,36.55
2022-11-22T16:18:34.959Z,36.58
2022-11-22T16:21:11.839Z,32.17
2022-11-22T16:23:42.904Z,40.50
2022-11-22T16:26:20.165Z,37.55
2022-11-22T16:28:48.632Z,37.10
2022-11-22T16:31:24.448Z,40.28
2022-11-22T16:33:53.541Z,38.83
2022-11-22T16:36:21.790Z,34.03
2022-11-22T16:38:48.604Z,38.38
2022-11-22T16:41:26.365Z,41.20
2022-11-22T16:44:00.107Z,36.30
2022-11-22T16:46:27.161Z,35.92
2022-11-22T16:48:55.118Z,41.42
2022-11-22T16:51:28.714Z,38.10
2022-11-22T16:53:58.134Z,39.85
2022-11-22T16:56:28.383Z,39.53
2022-11-22T16:58:56.487Z,40.63
2022-11-22T17:01:28.327Z,38.00
2022-11-22T17:03:58.188Z,38.80
2022-11-22T17:06:27.558Z,37.42
2022-11-22T17:08:56.887Z,38.95
2022-11-22T17:11:25.170Z,44.92
2022-11-22T17:13:52.354Z,44.25
2022-11-22T17:16:19.336Z,41.22
2022-11-22T17:18:47.637Z,39.45
2022-11-22T17:21:18.501Z,50.25
2022-11-22T17:23:45.125Z,38.58
2022-11-22T17:26:11.858Z,42.40
2022-11-22T17:28:38.499Z,41.13
2022-11-22T17:31:11.377Z,47.47
2022-11-22T17:33:38.017Z,42.28
2022-11-22T17:36:04.791Z,42.08
2022-11-22T17:38:31.505Z,39.70
2022-11-22T17:41:01.042Z,43.97
2022-11-22T17:43:27.602Z,42.63
2022-11-22T17:45:54.202Z,47.15
2022-11-22T17:48:20.851Z,45.15
2022-11-22T17:50:47.454Z,38.70
2022-11-22T17:53:14.716Z,42.08
2022-11-22T17:56:08.976Z,43.22
2022-11-22T17:58:28.150Z,41.53
2022-11-22T18:01:11.586Z,48.92
2022-11-22T18:03:39.238Z,47.67
2022-11-22T18:06:06.297Z,37.95
2022-11-22T18:08:33.543Z,42.95
2022-11-22T18:11:00.976Z,42.05
2022-11-22T18:13:29.002Z,41.95
2022-11-22T18:16:02.915Z,43.08
2022-11-22T18:18:55.023Z,43.85
2022-11-22T18:21:17.627Z,42.33
2022-11-22T18:23:45.309Z,45.05
2022-11-22T18:34:36.634Z,42.88
2022-11-22T18:37:05.958Z,45.42
2022-11-22T18:39:41.479Z,46.17
2022-11-22T18:42:15.507Z,49.63
2022-11-22T18:44:42.384Z,49.55
2022-11-22T18:47:09.099Z,56.05
2022-11-22T18:49:36.251Z,43.95
2022-11-22T18:52:03.193Z,47.45
2022-11-22T18:54:30.126Z,42.17
2022-11-22T18:56:57.202Z,47.20
2022-11-22T18:59:23.822Z,48.28
2022-11-22T19:01:50.412Z,51.75
2022-11-22T19:04:17.119Z,48.38
2022-11-22T19:06:44.536Z,48.42
2022-11-22T19:09:11.403Z,49.60
2022-11-22T19:11:38.454Z,50.65
2022-11-22T19:14:05.346Z,49.25
2022-11-22T19:16:32.003Z,47.90
2022-11-22T19:18:59.243Z,49.25
2022-11-22T19:21:27.957Z,47.22
2022-11-22T19:23:55.196Z,49.00
2022-11-22T19:26:23.932Z,45.13
2022-11-22T19:28:55.269Z,46.13
2022-11-22T19:31:24.573Z,47.33
2022-11-22T19:33:51.174Z,43.80
2022-11-22T19:36:25.333Z,47.47
2022-11-22T19:38:57.630Z,52.25
2022-11-22T19:41:24.948Z,47.05
2022-11-22T19:43:52.007Z,51.83
2022-11-22T19:46:20.161Z,50.80
2022-11-22T19:48:51.166Z,51.95
2022-11-22T19:51:17.882Z,47.53
2022-11-22T19:53:44.933Z,45.28
2022-11-22T19:56:16.643Z,46.45
2022-11-22T19:58:44.482Z,39.60
2022-11-22T20:01:13.669Z,51.95
2022-11-22T20:03:41.552Z,46.25
2022-11-22T20:06:10.479Z,49.15
2022-11-22T20:08:38.547Z,46.47
2022-11-22T20:11:09.286Z,49.22
2022-11-22T20:13:38.082Z,41.10
2022-11-22T20:16:17.776Z,39.63
2022-11-22T20:18:44.357Z,40.75
2022-11-22T20:21:11.325Z,44.63
2022-11-22T20:23:38.566Z,39.10
2022-11-22T20:26:10.337Z,44.55
2022-11-22T20:28:38.355Z,41.28
2022-11-22T20:31:16.181Z,44.40
2022-11-22T20:33:45.285Z,48.92
2022-11-22T20:36:17.709Z,41.42
2022-11-22T20:38:45.820Z,42.47
2022-11-22T20:41:13.491Z,46.58
2022-11-22T20:43:40.270Z,49.35
2022-11-22T20:46:14.787Z,47.10
2022-11-22T20:48:42.953Z,44.70
2022-11-22T20:51:19.037Z,50.85
2022-11-22T20:53:46.259Z,49.40
2022-11-22T20:56:13.988Z,42.60
2022-11-22T20:58:40.966Z,46.00
2022-11-22T21:01:19.680Z,41.35
2022-11-22T21:03:46.714Z,47.40
2022-11-22T21:06:13.972Z,44.60
2022-11-22T21:08:41.550Z,43.38
2022-11-22T21:11:19.720Z,41.45
2022-11-22T21:13:47.295Z,44.08
2022-11-22T21:16:24.104Z,44.90
2022-11-22T21:19:02.432Z,40.40
2022-11-22T21:21:29.939Z,50.95
2022-11-22T21:23:59.444Z,47.35
2022-11-22T21:26:26.842Z,43.88
2022-11-22T21:28:53.771Z,43.35
2022-11-22T21:31:21.808Z,46.30
2022-11-22T21:33:48.577Z,45.08
2022-11-22T21:36:15.297Z,47.08
2022-11-22T21:38:42.194Z,43.70
2022-11-22T21:43:59.642Z,45.00
2022-11-22T21:46:26.304Z,50.92
2022-11-22T21:48:55.673Z,46.20
2022-11-22T21:51:23.217Z,45.10
2022-11-22T21:53:50.009Z,45.17
2022-11-22T21:56:16.618Z,44.53
2022-11-22T21:58:43.456Z,41.47
2022-11-22T22:01:14.083Z,46.90
2022-11-22T22:03:41.017Z,38.75
2022-11-22T22:06:07.712Z,44.10
2022-11-22T22:08:34.697Z,39.10
2022-11-22T22:11:04.096Z,50.25
2022-11-22T22:13:32.574Z,41.85
2022-11-22T22:16:01.782Z,48.20
2022-11-22T22:18:32.340Z,47.65
2022-11-22T22:21:03.819Z,49.72
2022-11-22T22:50:43.832Z,46.50
2022-11-22T22:53:10.596Z,44.53
2022-11-22T22:55:37.755Z,45.25
2022-11-22T22:58:05.614Z,45.50
2022-11-22T23:00:33.874Z,48.63
2022-11-22T23:03:07.033Z,46.60
2022-11-22T23:05:35.012Z,50.45
2022-11-22T23:08:01.647Z,45.90
2022-11-22T23:15:58.385Z,45.65
2022-11-22T23:18:28.803Z,51.72
2022-11-22T23:21:01.858Z,51.05
2022-11-22T23:23:29.645Z,41.40
2022-11-22T23:25:57.333Z,46.95
2022-11-22T23:28:24.852Z,45.28
2022-11-22T23:30:52.025Z,45.95
2022-11-22T23:33:22.522Z,46.95
2022-11-22T23:35:50.940Z,49.80
2022-11-22T23:41:04.582Z,42.70
2022-11-22T23:43:38.499Z,45.28
2022-11-22T23:46:05.792Z,52.70
2022-11-22T23:48:32.720Z,48.97
2022-11-22T23:51:06.803Z,44.72
2022-11-22T23:53:34.164Z,47.13
2022-11-22T23:56:07.136Z,53.67
2022-11-22T23:58:35.005Z,51.67
